sensor_id;sensor_type;location;lat;lon;timestamp;pressure;altitude;pressure_sealevel;temperature;humidity
34586;BME280;20816;50.950;11.108;2024-02-23T00:01:09;95653.78;;;10.27;92.75
34586;BME280;20816;50.950;11.108;2024-02-23T00:03:38;95665.41;;;10.10;93.38
34586;BME280;20816;50.950;11.108;2024-02-23T00:06:05;95690.19;;;10.19;92.95
34586;BME280;20816;50.950;11.108;2024-02-23T00:08:32;95685.84;;;10.05;93.30
34586;BME280;20816;50.950;11.108;2024-02-23T00:10:59;95697.28;;;10.04;92.52
34586;BME280;20816;50.950;11.108;2024-02-23T00:13:26;95713.25;;;10.14;91.11
34586;BME280;20816;50.950;11.108;2024-02-23T00:15:53;95715.00;;;10.01;91.71
34586;BME280;20816;50.950;11.108;2024-02-23T00:18:20;95725.63;;;10.12;90.29
34586;BME280;20816;50.950;11.108;2024-02-23T00:20:47;95725.31;;;10.04;90.64
34586;BME280;20816;50.950;11.108;2024-02-23T00:23:13;95724.66;;;10.00;90.47
34586;BME280;20816;50.950;11.108;2024-02-23T00:25:41;95732.84;;;9.96;90.73
34586;BME280;20816;50.950;11.108;2024-02-23T00:28:08;95737.25;;;9.95;90.52
34586;BME280;20816;50.950;11.108;2024-02-23T00:30:34;95738.91;;;9.96;90.38
34586;BME280;20816;50.950;11.108;2024-02-23T00:33:02;95736.34;;;9.82;90.22
34586;BME280;20816;50.950;11.108;2024-02-23T00:35:29;95755.66;;;9.81;91.94
34586;BME280;20816;50.950;11.108;2024-02-23T00:37:56;95760.28;;;9.77;92.94
34586;BME280;20816;50.950;11.108;2024-02-23T00:40:23;95767.97;;;9.66;93.74
34586;BME280;20816;50.950;11.108;2024-02-23T00:42:50;95764.22;;;9.70;93.24
34586;BME280;20816;50.950;11.108;2024-02-23T00:45:17;95771.53;;;9.65;91.62
34586;BME280;20816;50.950;11.108;2024-02-23T00:47:44;95771.38;;;9.54;88.03
34586;BME280;20816;50.950;11.108;2024-02-23T00:50:14;95797.03;;;9.49;85.12
34586;BME280;20816;50.950;11.108;2024-02-23T00:52:40;95807.03;;;9.42;83.21
34586;BME280;20816;50.950;11.108;2024-02-23T00:55:07;95817.91;;;9.36;81.91
34586;BME280;20816;50.950;11.108;2024-02-23T00:57:35;95827.94;;;9.30;82.30
34586;BME280;20816;50.950;11.108;2024-02-23T01:00:02;95850.75;;;9.27;82.71
34586;BME280;20816;50.950;11.108;2024-02-23T01:02:31;95835.59;;;9.18;83.77
34586;BME280;20816;50.950;11.108;2024-02-23T01:04:59;95837.09;;;9.08;84.46
34586;BME280;20816;50.950;11.108;2024-02-23T01:07:26;95824.91;;;8.93;85.67
34586;BME280;20816;50.950;11.108;2024-02-23T01:09:54;95856.31;;;8.79;87.46
34586;BME280;20816;50.950;11.108;2024-02-23T01:12:20;95880.06;;;8.76;89.34
34586;BME280;20816;50.950;11.108;2024-02-23T01:14:47;95876.34;;;8.80;90.62
34586;BME280;20816;50.950;11.108;2024-02-23T01:17:15;95891.06;;;8.66;91.72
34586;BME280;20816;50.950;11.108;2024-02-23T01:19:43;95902.31;;;8.53;92.95
34586;BME280;20816;50.950;11.108;2024-02-23T01:22:10;95891.38;;;8.46;94.08
34586;BME280;20816;50.950;11.108;2024-02-23T01:24:37;95904.97;;;8.37;95.14
34586;BME280;20816;50.950;11.108;2024-02-23T01:27:03;95914.00;;;8.31;95.51
34586;BME280;20816;50.950;11.108;2024-02-23T01:29:30;95910.22;;;8.37;95.27
34586;BME280;20816;50.950;11.108;2024-02-23T01:31:57;95924.38;;;8.33;92.35
34586;BME280;20816;50.950;11.108;2024-02-23T01:34:24;95924.06;;;8.39;90.09
34586;BME280;20816;50.950;11.108;2024-02-23T01:36:51;95929.47;;;8.36;89.70
34586;BME280;20816;50.950;11.108;2024-02-23T01:39:17;95921.19;;;8.43;88.64
34586;BME280;20816;50.950;11.108;2024-02-23T01:41:45;95941.78;;;8.50;86.26
34586;BME280;20816;50.950;11.108;2024-02-23T01:44:12;95955.88;;;8.47;83.75
34586;BME280;20816;50.950;11.108;2024-02-23T01:46:39;95938.13;;;8.52;82.07
34586;BME280;20816;50.950;11.108;2024-02-23T01:49:06;95957.31;;;8.37;81.15
34586;BME280;20816;50.950;11.108;2024-02-23T01:51:35;95961.53;;;8.39;80.90
34586;BME280;20816;50.950;11.108;2024-02-23T01:54:02;95972.84;;;8.40;78.37
34586;BME280;20816;50.950;11.108;2024-02-23T01:56:31;95965.06;;;8.38;77.78
34586;BME280;20816;50.950;11.108;2024-02-23T01:59:00;95969.47;;;8.38;76.94
34586;BME280;20816;50.950;11.108;2024-02-23T02:01:30;95997.97;;;8.27;76.89
34586;BME280;20816;50.950;11.108;2024-02-23T02:04:00;95976.84;;;8.30;76.66
34586;BME280;20816;50.950;11.108;2024-02-23T02:06:27;95969.09;;;8.28;75.85
34586;BME280;20816;50.950;11.108;2024-02-23T02:08:54;95977.28;;;8.22;75.15
34586;BME280;20816;50.950;11.108;2024-02-23T02:11:21;95978.91;;;8.25;74.93
34586;BME280;20816;50.950;11.108;2024-02-23T02:13:48;95992.66;;;8.28;74.95
34586;BME280;20816;50.950;11.108;2024-02-23T02:16:14;95996.53;;;8.21;74.75
34586;BME280;20816;50.950;11.108;2024-02-23T02:18:41;95991.56;;;8.17;74.57
34586;BME280;20816;50.950;11.108;2024-02-23T02:21:08;96014.91;;;8.20;74.35
34586;BME280;20816;50.950;11.108;2024-02-23T02:23:34;96001.59;;;8.08;74.79
34586;BME280;20816;50.950;11.108;2024-02-23T02:26:04;96023.59;;;8.04;75.13
34586;BME280;20816;50.950;11.108;2024-02-23T02:28:31;96020.03;;;8.05;74.80
34586;BME280;20816;50.950;11.108;2024-02-23T02:30:57;96029.31;;;7.95;75.18
34586;BME280;20816;50.950;11.108;2024-02-23T02:33:24;96040.88;;;7.91;75.17
34586;BME280;20816;50.950;11.108;2024-02-23T02:35:51;96050.53;;;7.89;75.92
34586;BME280;20816;50.950;11.108;2024-02-23T02:38:17;96044.03;;;7.80;77.20
34586;BME280;20816;50.950;11.108;2024-02-23T02:40:44;96049.97;;;7.67;77.31
34586;BME280;20816;50.950;11.108;2024-02-23T02:43:11;96056.72;;;7.71;77.29
34586;BME280;20816;50.950;11.108;2024-02-23T02:45:38;96062.13;;;7.68;77.84
34586;BME280;20816;50.950;11.108;2024-02-23T02:48:05;96073.66;;;7.64;78.38
34586;BME280;20816;50.950;11.108;2024-02-23T02:50:32;96086.13;;;7.58;78.92
34586;BME280;20816;50.950;11.108;2024-02-23T02:52:59;96079.50;;;7.51;79.91
34586;BME280;20816;50.950;11.108;2024-02-23T02:55:26;96088.50;;;7.46;80.18
34586;BME280;20816;50.950;11.108;2024-02-23T02:57:52;96074.13;;;7.37;81.04
34586;BME280;20816;50.950;11.108;2024-02-23T03:00:19;96076.31;;;7.10;82.29
34586;BME280;20816;50.950;11.108;2024-02-23T03:02:46;96080.75;;;7.08;82.93
34586;BME280;20816;50.950;11.108;2024-02-23T03:05:12;96086.84;;;7.09;82.22
34586;BME280;20816;50.950;11.108;2024-02-23T03:07:39;96091.75;;;7.15;81.07
34586;BME280;20816;50.950;11.108;2024-02-23T03:10:06;96089.00;;;7.18;80.41
34586;BME280;20816;50.950;11.108;2024-02-23T03:12:33;96099.91;;;7.09;80.84
34586;BME280;20816;50.950;11.108;2024-02-23T03:15:00;96089.31;;;7.12;80.11
34586;BME280;20816;50.950;11.108;2024-02-23T03:17:29;96104.97;;;7.12;80.69
34586;BME280;20816;50.950;11.108;2024-02-23T03:19:56;96105.41;;;7.02;80.19
34586;BME280;20816;50.950;11.108;2024-02-23T03:22:24;96110.34;;;7.09;80.27
34586;BME280;20816;50.950;11.108;2024-02-23T03:24:51;96107.09;;;7.03;80.31
34586;BME280;20816;50.950;11.108;2024-02-23T03:27:19;96106.94;;;7.07;80.31
34586;BME280;20816;50.950;11.108;2024-02-23T03:29:46;96117.72;;;7.00;79.53
34586;BME280;20816;50.950;11.108;2024-02-23T03:32:13;96110.34;;;7.09;78.81
34586;BME280;20816;50.950;11.108;2024-02-23T03:34:39;96119.25;;;7.05;79.09
34586;BME280;20816;50.950;11.108;2024-02-23T03:37:06;96133.22;;;7.03;81.05
34586;BME280;20816;50.950;11.108;2024-02-23T03:39:33;96130.44;;;6.70;86.70
34586;BME280;20816;50.950;11.108;2024-02-23T03:42:00;96153.69;;;6.56;89.14
34586;BME280;20816;50.950;11.108;2024-02-23T03:44:27;96155.63;;;6.32;90.58
34586;BME280;20816;50.950;11.108;2024-02-23T03:46:54;96164.78;;;6.22;91.10
34586;BME280;20816;50.950;11.108;2024-02-23T03:49:20;96183.03;;;6.22;91.23
34586;BME280;20816;50.950;11.108;2024-02-23T03:51:47;96189.03;;;6.24;90.11
34586;BME280;20816;50.950;11.108;2024-02-23T03:54:14;96194.50;;;6.18;89.97
34586;BME280;20816;50.950;11.108;2024-02-23T03:56:41;96205.47;;;6.06;90.18
34586;BME280;20816;50.950;11.108;2024-02-23T03:59:09;96216.75;;;6.06;90.36
34586;BME280;20816;50.950;11.108;2024-02-23T04:01:37;96210.81;;;6.03;90.25
34586;BME280;20816;50.950;11.108;2024-02-23T04:04:04;96224.22;;;5.94;90.95
34586;BME280;20816;50.950;11.108;2024-02-23T04:06:31;96223.44;;;5.92;90.63
34586;BME280;20816;50.950;11.108;2024-02-23T04:08:59;96227.69;;;5.94;89.15
34586;BME280;20816;50.950;11.108;2024-02-23T04:11:26;96238.69;;;6.01;88.77
34586;BME280;20816;50.950;11.108;2024-02-23T04:13:53;96246.00;;;5.93;88.48
34586;BME280;20816;50.950;11.108;2024-02-23T04:16:23;96240.53;;;5.99;88.32
34586;BME280;20816;50.950;11.108;2024-02-23T04:18:50;96239.19;;;5.88;88.51
34586;BME280;20816;50.950;11.108;2024-02-23T04:21:17;96249.84;;;5.82;88.54
34586;BME280;20816;50.950;11.108;2024-02-23T04:23:44;96246.84;;;5.93;88.14
34586;BME280;20816;50.950;11.108;2024-02-23T04:26:11;96246.09;;;5.89;87.68
34586;BME280;20816;50.950;11.108;2024-02-23T04:28:39;96256.28;;;5.74;88.76
34586;BME280;20816;50.950;11.108;2024-02-23T04:31:08;96250.09;;;5.76;88.89
34586;BME280;20816;50.950;11.108;2024-02-23T04:33:35;96270.72;;;5.82;87.96
34586;BME280;20816;50.950;11.108;2024-02-23T04:36:03;96274.22;;;5.81;87.92
34586;BME280;20816;50.950;11.108;2024-02-23T04:38:30;96263.81;;;5.81;88.15
34586;BME280;20816;50.950;11.108;2024-02-23T04:40:58;96262.03;;;5.82;88.06
34586;BME280;20816;50.950;11.108;2024-02-23T04:43:25;96281.28;;;5.79;87.83
34586;BME280;20816;50.950;11.108;2024-02-23T04:45:52;96270.72;;;5.82;87.64
34586;BME280;20816;50.950;11.108;2024-02-23T04:48:18;96272.63;;;5.77;88.24
34586;BME280;20816;50.950;11.108;2024-02-23T04:50:45;96278.84;;;5.75;88.12
34586;BME280;20816;50.950;11.108;2024-02-23T04:53:12;96281.50;;;5.73;88.29
34586;BME280;20816;50.950;11.108;2024-02-23T04:55:39;96290.88;;;5.77;87.76
34586;BME280;20816;50.950;11.108;2024-02-23T04:58:05;96290.41;;;5.68;88.67
34586;BME280;20816;50.950;11.108;2024-02-23T05:00:32;96294.00;;;5.65;87.95
34586;BME280;20816;50.950;11.108;2024-02-23T05:03:00;96293.09;;;5.66;87.81
34586;BME280;20816;50.950;11.108;2024-02-23T05:05:30;96288.91;;;5.62;87.51
34586;BME280;20816;50.950;11.108;2024-02-23T05:07:58;96294.13;;;5.62;88.46
34586;BME280;20816;50.950;11.108;2024-02-23T05:10:26;96296.84;;;5.59;87.96
34586;BME280;20816;50.950;11.108;2024-02-23T05:12:53;96315.06;;;5.59;87.50
34586;BME280;20816;50.950;11.108;2024-02-23T05:15:20;96309.84;;;5.59;86.70
34586;BME280;20816;50.950;11.108;2024-02-23T05:17:47;96317.03;;;5.54;87.06
34586;BME280;20816;50.950;11.108;2024-02-23T05:20:14;96334.44;;;5.52;85.89
34586;BME280;20816;50.950;11.108;2024-02-23T05:22:41;96343.31;;;5.48;86.74
34586;BME280;20816;50.950;11.108;2024-02-23T05:25:08;96348.31;;;5.52;86.42
34586;BME280;20816;50.950;11.108;2024-02-23T05:27:35;96343.06;;;5.54;85.51
34586;BME280;20816;50.950;11.108;2024-02-23T05:30:02;96333.44;;;5.56;85.90
34586;BME280;20816;50.950;11.108;2024-02-23T05:32:29;96329.13;;;5.55;85.54
34586;BME280;20816;50.950;11.108;2024-02-23T05:34:56;96328.16;;;5.57;85.75
34586;BME280;20816;50.950;11.108;2024-02-23T05:37:23;96324.94;;;5.51;85.77
34586;BME280;20816;50.950;11.108;2024-02-23T05:39:50;96335.72;;;5.42;85.50
34586;BME280;20816;50.950;11.108;2024-02-23T05:42:17;96346.28;;;5.37;84.46
34586;BME280;20816;50.950;11.108;2024-02-23T05:44:44;96346.91;;;5.44;83.96
34586;BME280;20816;50.950;11.108;2024-02-23T05:47:11;96335.88;;;5.37;84.01
34586;BME280;20816;50.950;11.108;2024-02-23T05:49:40;96334.47;;;5.28;84.03
34586;BME280;20816;50.950;11.108;2024-02-23T05:52:07;96342.41;;;5.25;83.85
34586;BME280;20816;50.950;11.108;2024-02-23T05:54:34;96338.78;;;5.29;83.24
34586;BME280;20816;50.950;11.108;2024-02-23T05:57:01;96337.97;;;5.27;83.52
34586;BME280;20816;50.950;11.108;2024-02-23T05:59:28;96347.38;;;5.31;82.31
34586;BME280;20816;50.950;11.108;2024-02-23T06:01:54;96345.91;;;5.24;82.40
34586;BME280;20816;50.950;11.108;2024-02-23T06:04:24;96349.22;;;5.29;81.97
34586;BME280;20816;50.950;11.108;2024-02-23T06:06:51;96358.88;;;5.26;81.99
34586;BME280;20816;50.950;11.108;2024-02-23T06:09:18;96355.19;;;5.31;82.16
34586;BME280;20816;50.950;11.108;2024-02-23T06:11:46;96357.53;;;5.16;83.20
34586;BME280;20816;50.950;11.108;2024-02-23T06:14:13;96361.53;;;5.24;82.89
34586;BME280;20816;50.950;11.108;2024-02-23T06:16:40;96364.22;;;5.23;82.71
34586;BME280;20816;50.950;11.108;2024-02-23T06:19:08;96354.63;;;5.23;82.50
34586;BME280;20816;50.950;11.108;2024-02-23T06:21:35;96358.38;;;5.16;82.40
34586;BME280;20816;50.950;11.108;2024-02-23T06:24:03;96365.34;;;5.16;82.45
34586;BME280;20816;50.950;11.108;2024-02-23T06:26:31;96376.31;;;5.24;82.05
34586;BME280;20816;50.950;11.108;2024-02-23T06:28:58;96382.50;;;5.21;81.51
34586;BME280;20816;50.950;11.108;2024-02-23T06:31:26;96390.31;;;5.21;81.38
34586;BME280;20816;50.950;11.108;2024-02-23T06:33:52;96385.13;;;5.20;81.01
34586;BME280;20816;50.950;11.108;2024-02-23T06:36:19;96389.41;;;5.22;80.91
34586;BME280;20816;50.950;11.108;2024-02-23T06:38:46;96391.31;;;5.17;80.92
34586;BME280;20816;50.950;11.108;2024-02-23T06:41:14;96405.66;;;5.04;81.51
34586;BME280;20816;50.950;11.108;2024-02-23T06:43:41;96409.88;;;5.08;80.68
34586;BME280;20816;50.950;11.108;2024-02-23T06:46:08;96409.06;;;5.06;80.23
34586;BME280;20816;50.950;11.108;2024-02-23T06:48:36;96412.53;;;5.06;80.60
34586;BME280;20816;50.950;11.108;2024-02-23T06:51:06;96424.06;;;4.99;80.69
34586;BME280;20816;50.950;11.108;2024-02-23T06:53:36;96428.94;;;5.09;79.54
34586;BME280;20816;50.950;11.108;2024-02-23T06:56:05;96438.38;;;5.11;79.49
34586;BME280;20816;50.950;11.108;2024-02-23T06:58:32;96449.63;;;5.12;79.69
34586;BME280;20816;50.950;11.108;2024-02-23T07:00:59;96436.03;;;5.03;80.19
34586;BME280;20816;50.950;11.108;2024-02-23T07:03:26;96435.50;;;5.19;79.75
34586;BME280;20816;50.950;11.108;2024-02-23T07:05:53;96436.59;;;5.13;80.15
34586;BME280;20816;50.950;11.108;2024-02-23T07:08:20;96431.59;;;5.07;80.61
34586;BME280;20816;50.950;11.108;2024-02-23T07:10:47;96439.28;;;5.10;81.50
34586;BME280;20816;50.950;11.108;2024-02-23T07:13:14;96435.44;;;5.20;80.21
34586;BME280;20816;50.950;11.108;2024-02-23T07:15:41;96447.00;;;5.38;80.13
34586;BME280;20816;50.950;11.108;2024-02-23T07:18:08;96441.22;;;5.28;80.22
34586;BME280;20816;50.950;11.108;2024-02-23T07:20:36;96437.13;;;5.23;81.39
34586;BME280;20816;50.950;11.108;2024-02-23T07:23:04;96443.84;;;5.28;81.00
34586;BME280;20816;50.950;11.108;2024-02-23T07:25:31;96461.97;;;5.31;81.31
34586;BME280;20816;50.950;11.108;2024-02-23T07:27:58;96463.69;;;5.32;81.12
34586;BME280;20816;50.950;11.108;2024-02-23T07:30:25;96467.91;;;5.35;81.29
34586;BME280;20816;50.950;11.108;2024-02-23T07:32:52;96463.09;;;5.24;81.93
34586;BME280;20816;50.950;11.108;2024-02-23T07:35:19;96461.19;;;5.29;81.48
34586;BME280;20816;50.950;11.108;2024-02-23T07:37:46;96463.56;;;5.35;81.46
34586;BME280;20816;50.950;11.108;2024-02-23T07:40:13;96465.69;;;5.49;80.77
34586;BME280;20816;50.950;11.108;2024-02-23T07:42:44;96468.13;;;5.54;80.98
34586;BME280;20816;50.950;11.108;2024-02-23T07:45:11;96469.91;;;5.52;81.43
34586;BME280;20816;50.950;11.108;2024-02-23T07:47:38;96468.13;;;5.54;80.49
34586;BME280;20816;50.950;11.108;2024-02-23T07:50:05;96460.25;;;5.55;80.89
34586;BME280;20816;50.950;11.108;2024-02-23T07:52:32;96444.56;;;5.57;79.49
34586;BME280;20816;50.950;11.108;2024-02-23T07:55:00;96451.75;;;5.50;78.71
34586;BME280;20816;50.950;11.108;2024-02-23T07:57:29;96439.16;;;5.61;78.83
34586;BME280;20816;50.950;11.108;2024-02-23T07:59:57;96451.06;;;5.69;78.93
34586;BME280;20816;50.950;11.108;2024-02-23T08:02:24;96450.22;;;5.68;79.01
34586;BME280;20816;50.950;11.108;2024-02-23T08:04:51;96450.13;;;5.71;78.90
34586;BME280;20816;50.950;11.108;2024-02-23T08:07:19;96439.00;;;5.66;78.75
34586;BME280;20816;50.950;11.108;2024-02-23T08:09:46;96444.91;;;5.71;78.15
34586;BME280;20816;50.950;11.108;2024-02-23T08:12:12;96451.88;;;5.71;78.83
34586;BME280;20816;50.950;11.108;2024-02-23T08:14:40;96444.78;;;5.74;78.49
34586;BME280;20816;50.950;11.108;2024-02-23T08:17:08;96457.94;;;5.71;78.24
34586;BME280;20816;50.950;11.108;2024-02-23T08:19:34;96470.63;;;5.80;78.89
34586;BME280;20816;50.950;11.108;2024-02-23T08:22:01;96478.38;;;5.82;77.66
34586;BME280;20816;50.950;11.108;2024-02-23T08:24:35;96474.91;;;5.81;79.01
34586;BME280;20816;50.950;11.108;2024-02-23T08:27:02;96483.72;;;5.79;78.82
34586;BME280;20816;50.950;11.108;2024-02-23T08:29:29;96487.72;;;5.87;77.36
34586;BME280;20816;50.950;11.108;2024-02-23T08:31:56;96485.91;;;5.89;78.26
34586;BME280;20816;50.950;11.108;2024-02-23T08:34:22;96499.84;;;5.88;78.37
34586;BME280;20816;50.950;11.108;2024-02-23T08:36:51;96502.84;;;6.03;77.95
34586;BME280;20816;50.950;11.108;2024-02-23T08:39:18;96503.50;;;6.08;77.23
34586;BME280;20816;50.950;11.108;2024-02-23T08:41:44;96504.91;;;6.16;75.90
34586;BME280;20816;50.950;11.108;2024-02-23T08:44:11;96514.38;;;6.19;76.10
34586;BME280;20816;50.950;11.108;2024-02-23T08:46:38;96512.22;;;6.30;76.20
34586;BME280;20816;50.950;11.108;2024-02-23T08:49:06;96515.72;;;6.29;75.67
34586;BME280;20816;50.950;11.108;2024-02-23T08:51:33;96516.22;;;6.39;75.34
34586;BME280;20816;50.950;11.108;2024-02-23T08:54:00;96509.25;;;6.39;74.90
34586;BME280;20816;50.950;11.108;2024-02-23T08:56:31;96514.31;;;6.42;74.28
34586;BME280;20816;50.950;11.108;2024-02-23T08:58:58;96512.94;;;6.56;74.31
34586;BME280;20816;50.950;11.108;2024-02-23T09:01:25;96521.56;;;6.58;74.11
34586;BME280;20816;50.950;11.108;2024-02-23T09:03:52;96524.72;;;6.66;73.40
34586;BME280;20816;50.950;11.108;2024-02-23T09:06:19;96534.06;;;6.71;71.85
34586;BME280;20816;50.950;11.108;2024-02-23T09:08:46;96537.22;;;6.58;72.49
34586;BME280;20816;50.950;11.108;2024-02-23T09:11:13;96536.38;;;6.79;72.47
34586;BME280;20816;50.950;11.108;2024-02-23T09:13:42;96527.09;;;6.72;71.71
34586;BME280;20816;50.950;11.108;2024-02-23T09:16:09;96534.06;;;6.93;71.44
34586;BME280;20816;50.950;11.108;2024-02-23T09:18:36;96520.09;;;6.94;70.42
34586;BME280;20816;50.950;11.108;2024-02-23T09:21:03;96518.25;;;7.18;70.46
34586;BME280;20816;50.950;11.108;2024-02-23T09:23:30;96514.72;;;7.19;70.53
34586;BME280;20816;50.950;11.108;2024-02-23T09:25:57;96524.78;;;7.28;70.48
34586;BME280;20816;50.950;11.108;2024-02-23T09:28:23;96514.66;;;7.41;69.09
34586;BME280;20816;50.950;11.108;2024-02-23T09:30:51;96530.00;;;7.28;68.91
34586;BME280;20816;50.950;11.108;2024-02-23T09:33:19;96528.91;;;7.34;69.34
34586;BME280;20816;50.950;11.108;2024-02-23T09:35:46;96525.63;;;7.29;69.80
34586;BME280;20816;50.950;11.108;2024-02-23T09:38:13;96540.50;;;7.47;69.54
34586;BME280;20816;50.950;11.108;2024-02-23T09:40:40;96548.41;;;7.46;69.99
34586;BME280;20816;50.950;11.108;2024-02-23T09:43:07;96549.78;;;7.54;68.94
34586;BME280;20816;50.950;11.108;2024-02-23T09:45:34;96541.38;;;7.68;68.96
34586;BME280;20816;50.950;11.108;2024-02-23T09:48:02;96554.38;;;7.49;68.14
34586;BME280;20816;50.950;11.108;2024-02-23T09:50:30;96550.03;;;7.48;68.39
34586;BME280;20816;50.950;11.108;2024-02-23T09:52:58;96545.47;;;7.53;68.11
34586;BME280;20816;50.950;11.108;2024-02-23T09:55:25;96548.28;;;7.69;68.36
34586;BME280;20816;50.950;11.108;2024-02-23T09:57:55;96542.97;;;7.71;68.20
34586;BME280;20816;50.950;11.108;2024-02-23T10:00:24;96565.44;;;7.95;67.97
34586;BME280;20816;50.950;11.108;2024-02-23T10:02:53;96549.13;;;7.90;66.24
34586;BME280;20816;50.950;11.108;2024-02-23T10:05:23;96556.69;;;7.96;67.04
34586;BME280;20816;50.950;11.108;2024-02-23T10:08:00;96561.00;;;7.97;66.65
34586;BME280;20816;50.950;11.108;2024-02-23T10:10:32;96554.22;;;7.93;66.76
34586;BME280;20816;50.950;11.108;2024-02-23T10:13:00;96553.78;;;7.83;66.10
34586;BME280;20816;50.950;11.108;2024-02-23T10:15:30;96552.69;;;7.87;65.94
34586;BME280;20816;50.950;11.108;2024-02-23T10:17:59;96554.34;;;7.90;67.56
34586;BME280;20816;50.950;11.108;2024-02-23T10:20:26;96561.13;;;7.94;67.40
34586;BME280;20816;50.950;11.108;2024-02-23T10:22:54;96555.22;;;8.09;67.49
34586;BME280;20816;50.950;11.108;2024-02-23T10:25:21;96554.72;;;8.20;66.47
34586;BME280;20816;50.950;11.108;2024-02-23T10:27:48;96560.03;;;8.19;66.41
34586;BME280;20816;50.950;11.108;2024-02-23T10:30:15;96558.50;;;8.14;66.32
34586;BME280;20816;50.950;11.108;2024-02-23T10:32:42;96551.75;;;7.90;66.03
34586;BME280;20816;50.950;11.108;2024-02-23T10:35:14;96557.19;;;8.04;66.93
34586;BME280;20816;50.950;11.108;2024-02-23T10:37:43;96558.41;;;8.16;66.02
34586;BME280;20816;50.950;11.108;2024-02-23T10:40:16;96552.53;;;8.30;66.95
34586;BME280;20816;50.950;11.108;2024-02-23T10:42:44;96550.84;;;8.10;66.39
34586;BME280;20816;50.950;11.108;2024-02-23T10:45:18;96546.88;;;8.20;66.65
34586;BME280;20816;50.950;11.108;2024-02-23T10:47:46;96542.41;;;8.03;66.19
34586;BME280;20816;50.950;11.108;2024-02-23T10:50:14;96540.81;;;8.20;66.96
34586;BME280;20816;50.950;11.108;2024-02-23T10:52:42;96544.84;;;8.08;66.53
34586;BME280;20816;50.950;11.108;2024-02-23T10:55:09;96546.19;;;8.17;67.14
34586;BME280;20816;50.950;11.108;2024-02-23T10:57:37;96539.25;;;8.34;66.14
34586;BME280;20816;50.950;11.108;2024-02-23T11:00:07;96544.75;;;8.09;66.78
34586;BME280;20816;50.950;11.108;2024-02-23T11:02:43;96547.03;;;7.98;66.59
34586;BME280;20816;50.950;11.108;2024-02-23T11:05:14;96550.53;;;7.97;66.16
34586;BME280;20816;50.950;11.108;2024-02-23T11:07:42;96549.69;;;7.97;66.80
34586;BME280;20816;50.950;11.108;2024-02-23T11:10:13;96566.03;;;8.21;67.32
34586;BME280;20816;50.950;11.108;2024-02-23T11:12:39;96567.34;;;8.31;67.02
34586;BME280;20816;50.950;11.108;2024-02-23T11:15:06;96560.66;;;8.44;66.80
34586;BME280;20816;50.950;11.108;2024-02-23T11:17:36;96565.09;;;8.61;66.34
34586;BME280;20816;50.950;11.108;2024-02-23T11:20:05;96562.13;;;8.68;65.16
34586;BME280;20816;50.950;11.108;2024-02-23T11:22:34;96564.19;;;8.81;65.31
34586;BME280;20816;50.950;11.108;2024-02-23T11:25:06;96557.91;;;9.02;64.57
34586;BME280;20816;50.950;11.108;2024-02-23T11:27:38;96559.91;;;8.97;63.62
34586;BME280;20816;50.950;11.108;2024-02-23T11:30:09;96546.97;;;9.11;63.45
34586;BME280;20816;50.950;11.108;2024-02-23T11:32:40;96552.09;;;8.95;63.94
34586;BME280;20816;50.950;11.108;2024-02-23T11:35:10;96559.31;;;8.73;64.86
34586;BME280;20816;50.950;11.108;2024-02-23T11:37:48;96565.66;;;8.67;65.17
34586;BME280;20816;50.950;11.108;2024-02-23T11:40:17;96557.25;;;8.80;66.07
34586;BME280;20816;50.950;11.108;2024-02-23T11:42:44;96552.28;;;8.74;64.73
34586;BME280;20816;50.950;11.108;2024-02-23T11:45:11;96548.47;;;8.81;64.83
34586;BME280;20816;50.950;11.108;2024-02-23T11:47:38;96564.53;;;8.54;64.92
34586;BME280;20816;50.950;11.108;2024-02-23T11:50:09;96552.00;;;8.61;66.48
34586;BME280;20816;50.950;11.108;2024-02-23T11:52:37;96543.47;;;8.57;65.77
34586;BME280;20816;50.950;11.108;2024-02-23T11:55:05;96547.63;;;8.61;65.76
34586;BME280;20816;50.950;11.108;2024-02-23T11:57:33;96549.47;;;8.59;66.25
34586;BME280;20816;50.950;11.108;2024-02-23T12:00:13;96551.03;;;8.45;67.42
34586;BME280;20816;50.950;11.108;2024-02-23T12:02:40;96544.34;;;8.19;67.56
34586;BME280;20816;50.950;11.108;2024-02-23T12:05:07;96552.69;;;8.27;68.43
34586;BME280;20816;50.950;11.108;2024-02-23T12:07:35;96556.94;;;8.29;68.12
34586;BME280;20816;50.950;11.108;2024-02-23T12:10:02;96549.56;;;8.19;67.44
34586;BME280;20816;50.950;11.108;2024-02-23T12:12:31;96545.63;;;8.29;69.46
34586;BME280;20816;50.950;11.108;2024-02-23T12:14:58;96549.50;;;8.40;68.51
34586;BME280;20816;50.950;11.108;2024-02-23T12:17:25;96545.97;;;8.21;66.71
34586;BME280;20816;50.950;11.108;2024-02-23T12:19:59;96545.47;;;8.13;67.03
34586;BME280;20816;50.950;11.108;2024-02-23T12:22:27;96539.25;;;8.34;67.61
34586;BME280;20816;50.950;11.108;2024-02-23T12:24:57;96546.47;;;8.29;67.31
34586;BME280;20816;50.950;11.108;2024-02-23T12:27:24;96552.41;;;8.33;67.23
34586;BME280;20816;50.950;11.108;2024-02-23T12:29:55;96554.00;;;8.37;68.49
34586;BME280;20816;50.950;11.108;2024-02-23T12:32:22;96546.25;;;8.34;68.76
34586;BME280;20816;50.950;11.108;2024-02-23T12:34:49;96535.59;;;8.38;68.42
34586;BME280;20816;50.950;11.108;2024-02-23T12:37:17;96547.47;;;8.27;69.00
34586;BME280;20816;50.950;11.108;2024-02-23T12:39:44;96537.59;;;8.13;67.43
34586;BME280;20816;50.950;11.108;2024-02-23T12:42:11;96529.06;;;8.09;67.40
34586;BME280;20816;50.950;11.108;2024-02-23T12:44:38;96534.72;;;8.00;68.05
34586;BME280;20816;50.950;11.108;2024-02-23T12:47:05;96537.09;;;8.05;67.61
34586;BME280;20816;50.950;11.108;2024-02-23T12:49:32;96528.09;;;8.31;68.24
34586;BME280;20816;50.950;11.108;2024-02-23T12:51:59;96533.72;;;8.22;66.89
34586;BME280;20816;50.950;11.108;2024-02-23T12:54:26;96531.44;;;8.14;68.23
34586;BME280;20816;50.950;11.108;2024-02-23T12:56:53;96523.59;;;8.14;68.18
34586;BME280;20816;50.950;11.108;2024-02-23T12:59:20;96529.00;;;8.30;68.76
34586;BME280;20816;50.950;11.108;2024-02-23T13:01:47;96530.50;;;8.17;68.16